Gerber, California
Current Conditions -  °F | °C
As of 8:54 AM on Thursday 23 Oct 2014 (Local Time) from KRBL Reporting Station
Light Rain Light Rain  
Wind Chill: 14°   Ceiling: 10000
Heat Index: 14°   Visibility: 7mi
Dew Point: 12°   Wind: 5mph
Humidity: 89%   Direction: 340°NNW
Pressure: 30.06"   Gusts: NA
Location:  40.06°N, 122.15°W
Report Text: KRBL 231554Z AUTO 34004KT 7SM -RA OVC100 14/12 A3006 RMK AO2 SLP176 P0001 T01390122
Loading
Personal Weather Stations






























Interactive Weather Map
Tropical Storm Tracking
New forecast layout! Learn more

10-Day Weather Forecast

Advertisements
Track Severe Weather on mobile